Time;durP1;ratioP1;P1;durP2;ratioP2;P2;SDS_P1;SDS_P2;PMS_P1;PMS_P2;Temp;Humidity;BMP_temperature;BMP_pressure;BME280_temperature;BME280_humidity;BME280_pressure;Samples;Min_cycle;Max_cycle;Signal;HPM_P1;HPM_P2
2021/05/26 00:02:12;;;;;;;9.15;3.98;;;;;;;6.36;76.89;97438.83;1767071;79;25235;-85
2021/05/26 00:04:38;;;;;;;7.62;3.70;;;;;;;6.25;76.96;97429.91;1803181;79;25513;-85
2021/05/26 00:07:05;;;;;;;8.83;4.00;;;;;;;6.13;77.04;97422.31;1782356;79;25669;-86
2021/05/26 00:09:31;;;;;;;12.13;4.42;;;;;;;6.12;77.27;97427.34;1761484;79;25665;-85
2021/05/26 00:11:58;;;;;;;9.40;4.25;;;;;;;6.18;77.40;97427.61;1784606;79;27311;-84
2021/05/26 00:14:25;;;;;;;6.12;3.92;;;;;;;6.12;77.28;97440.75;1787872;79;25668;-85
2021/05/26 00:16:51;;;;;;;6.53;3.98;;;;;;;6.14;77.41;97434.70;1769271;79;25603;-84
2021/05/26 00:19:18;;;;;;;5.72;3.45;;;;;;;6.19;77.52;97442.68;1773727;79;25657;-82
2021/05/26 00:21:45;;;;;;;12.13;3.45;;;;;;;6.19;77.43;97445.36;1767701;78;25740;-82
2021/05/26 00:24:14;;;;;;;4.85;3.30;;;;;;;6.21;77.49;97450.03;1787339;79;27296;-83
2021/05/26 00:26:41;;;;;;;7.47;3.80;;;;;;;6.18;77.20;97454.41;1771481;79;25686;-83
2021/05/26 00:29:08;;;;;;;5.67;3.45;;;;;;;6.13;77.19;97452.30;1762655;79;25656;-84
2021/05/26 00:31:35;;;;;;;11.48;3.90;;;;;;;6.10;77.21;97454.83;1788116;79;25624;-82
2021/05/26 00:34:02;;;;;;;7.28;3.90;;;;;;;6.12;77.26;97459.51;1773950;78;25647;-81
2021/05/26 00:36:28;;;;;;;5.25;3.15;;;;;;;6.13;77.33;97463.85;1804003;78;27301;-84
2021/05/26 00:38:55;;;;;;;9.10;3.85;;;;;;;6.18;77.28;97467.81;1804021;78;25688;-84
2021/05/26 00:41:30;;;;;;;6.08;3.17;;;;;;;6.08;77.02;97480.97;1788907;79;25573;-84
2021/05/26 00:43:57;;;;;;;11.50;3.42;;;;;;;5.97;76.99;97487.27;1769790;79;26383;-84
2021/05/26 00:46:25;;;;;;;6.22;3.45;;;;;;;5.96;77.19;97487.78;1790049;79;25219;-81
2021/05/26 00:48:51;;;;;;;15.65;4.00;;;;;;;6.00;77.28;97491.77;1778433;79;27334;-83
2021/05/26 00:51:18;;;;;;;6.42;3.65;;;;;;;5.90;77.14;97484.50;1762371;79;25668;-83
2021/05/26 00:53:45;;;;;;;5.67;3.15;;;;;;;5.87;77.24;97482.14;1761377;79;25606;-84
2021/05/26 00:56:11;;;;;;;7.80;3.55;;;;;;;5.88;77.29;97488.33;1780278;79;25694;-84
2021/05/26 00:58:40;;;;;;;9.58;3.37;;;;;;;5.80;77.16;97486.53;1772542;79;25637;-85
2021/05/26 01:01:07;;;;;;;8.45;3.62;;;;;;;5.72;77.16;97485.27;1803547;79;27305;-84
2021/05/26 01:03:34;;;;;;;9.98;4.15;;;;;;;5.67;77.17;97479.13;1789677;79;25631;-83
2021/05/26 01:06:00;;;;;;;5.78;3.90;;;;;;;5.66;77.26;97480.63;1786528;79;25633;-82
2021/05/26 01:08:27;;;;;;;10.53;4.28;;;;;;;5.62;77.23;97483.33;1773684;79;25679;-85
2021/05/26 01:10:53;;;;;;;7.00;3.35;;;;;;;5.59;77.22;97481.00;1790453;79;25526;-84
2021/05/26 01:13:22;;;;;;;9.60;3.80;;;;;;;5.56;77.21;97486.70;1787731;79;27289;-82
2021/05/26 01:15:48;;;;;;;6.20;4.00;;;;;;;5.48;77.23;97488.94;1779026;79;25652;-83
2021/05/26 01:18:24;;;;;;;5.17;3.70;;;;;;;5.50;77.40;97490.11;1793201;79;25674;-85
2021/05/26 01:20:54;;;;;;;6.22;3.62;;;;;;;5.53;77.46;97492.44;1778474;79;25687;-85
2021/05/26 01:23:22;;;;;;;7.53;3.83;;;;;;;5.49;77.46;97491.11;1782498;79;25187;-84
2021/05/26 01:25:53;;;;;;;5.00;3.45;;;;;;;5.47;77.47;97489.95;1772908;79;27318;-84
2021/05/26 01:28:21;;;;;;;8.23;3.80;;;;;;;5.48;77.43;97497.48;1793383;79;25626;-85
2021/05/26 01:30:48;;;;;;;6.10;4.30;;;;;;;5.48;77.45;97488.11;1787902;79;25583;-84
2021/05/26 01:33:16;;;;;;;5.20;3.87;;;;;;;5.51;77.57;97483.75;1773969;79;25666;-82
2021/05/26 01:35:45;;;;;;;8.43;4.35;;;;;;;5.55;77.67;97487.75;1796633;78;25649;-85
2021/05/26 01:38:17;;;;;;;7.40;4.12;;;;;;;5.56;77.74;97484.86;1796757;79;26762;-83
2021/05/26 01:40:45;;;;;;;5.60;3.70;;;;;;;5.57;77.72;97485.70;1776562;79;25657;-82
2021/05/26 01:43:12;;;;;;;10.82;3.83;;;;;;;5.59;77.65;97486.36;1789531;79;25205;-81
2021/05/26 01:45:40;;;;;;;8.48;3.72;;;;;;;5.56;77.45;97492.06;1760992;79;25688;-82
2021/05/26 01:48:07;;;;;;;12.82;3.35;;;;;;;5.51;77.46;97497.13;1760904;79;25646;-82
2021/05/26 01:50:35;;;;;;;5.12;2.87;;;;;;;5.47;77.52;97502.50;1767237;79;27930;-84
2021/05/26 01:53:06;;;;;;;8.83;3.35;;;;;;;5.46;77.52;97507.53;1764855;79;25610;-81
2021/05/26 01:55:34;;;;;;;5.97;2.83;;;;;;;5.48;77.61;97500.16;1774136;80;25621;-81
2021/05/26 01:58:01;;;;;;;5.37;3.62;;;;;;;5.43;77.58;97512.22;1769832;79;25686;-81
2021/05/26 02:00:28;;;;;;;6.15;3.40;;;;;;;5.43;77.64;97516.23;1796538;79;25712;-81
2021/05/26 02:02:55;;;;;;;4.95;3.22;;;;;;;5.40;77.61;97511.26;1770509;79;27308;-86
2021/05/26 02:05:22;;;;;;;9.45;3.00;;;;;;;5.37;77.65;97504.91;1789967;79;26334;-82
2021/05/26 02:07:48;;;;;;;7.22;3.65;;;;;;;5.37;77.74;97512.10;1780741;78;25585;-82
2021/05/26 02:10:17;;;;;;;6.40;3.87;;;;;;;5.38;77.77;97509.25;1761404;79;25790;-81
2021/05/26 02:12:45;;;;;;;9.98;3.85;;;;;;;5.40;77.76;97509.92;1774359;79;25602;-81
2021/05/26 02:15:14;;;;;;;9.40;3.50;;;;;;;5.41;77.84;97510.25;1796624;79;27305;-85
2021/05/26 02:17:41;;;;;;;4.50;3.42;;;;;;;5.41;77.90;97500.05;1769064;79;25659;-81
2021/05/26 02:20:10;;;;;;;6.72;3.45;;;;;;;5.38;77.87;97497.71;1780012;79;25629;-81
2021/05/26 02:22:37;;;;;;;4.87;3.87;;;;;;;5.38;77.93;97499.88;1769320;79;25665;-82
2021/05/26 02:25:04;;;;;;;9.08;4.30;;;;;;;5.36;77.95;97499.73;1797968;79;26227;-83
2021/05/26 02:27:31;;;;;;;6.22;3.58;;;;;;;5.32;78.00;97485.85;1790722;79;27282;-81
2021/05/26 02:29:58;;;;;;;10.93;3.85;;;;;;;5.31;77.94;97480.17;1790584;79;25669;-82
2021/05/26 02:32:25;;;;;;;3.77;2.45;;;;;;;5.29;77.96;97478.20;1789881;79;25621;-82
2021/05/26 02:34:52;;;;;;;6.53;2.92;;;;;;;5.27;77.98;97474.86;1786339;79;25754;-81
2021/05/26 02:37:19;;;;;;;7.62;2.87;;;;;;;5.31;78.12;97482.05;1785102;79;25639;-82
2021/05/26 02:39:45;;;;;;;5.05;2.55;;;;;;;5.37;78.15;97495.54;1776865;79;27287;-81
2021/05/26 02:42:12;;;;;;;6.08;2.65;;;;;;;5.34;78.07;97490.53;1779878;79;25681;-82
2021/05/26 02:44:39;;;;;;;5.47;2.62;;;;;;;5.29;78.09;97503.63;1776238;79;26425;-83
2021/05/26 02:47:05;;;;;;;3.15;2.50;;;;;;;5.28;78.12;97511.83;1792383;79;25691;-81
2021/05/26 02:49:32;;;;;;;4.35;2.72;;;;;;;5.30;78.15;97516.50;1777056;79;25685;-82
2021/05/26 02:51:58;;;;;;;4.00;2.90;;;;;;;5.24;78.04;97519.87;1774943;79;27404;-85
2021/05/26 02:54:25;;;;;;;4.75;2.75;;;;;;;5.26;78.14;97526.72;1774577;79;25651;-84
2021/05/26 02:56:52;;;;;;;5.17;3.08;;;;;;;5.27;78.14;97525.72;1769998;79;25989;-83
2021/05/26 02:59:18;;;;;;;5.80;2.72;;;;;;;5.28;78.21;97523.87;1785496;78;25728;-82
2021/05/26 03:01:45;;;;;;;6.35;3.02;;;;;;;5.27;78.17;97523.03;1785004;78;25646;-82
2021/05/26 03:04:11;;;;;;;7.40;3.17;;;;;;;5.29;78.24;97521.02;1770722;79;27286;-82
2021/05/26 03:06:38;;;;;;;5.20;2.80;;;;;;;5.29;78.26;97531.73;1764866;79;25794;-82
2021/05/26 03:09:05;;;;;;;5.12;2.50;;;;;;;5.32;78.31;97526.00;1782703;79;25595;-82
2021/05/26 03:11:32;;;;;;;5.00;2.55;;;;;;;5.35;78.29;97525.66;1787888;79;26250;-83
2021/05/26 03:13:59;;;;;;;4.65;2.72;;;;;;;5.34;78.29;97514.62;1779910;79;25628;-82
2021/05/26 03:16:25;;;;;;;6.00;2.33;;;;;;;5.30;78.23;97517.34;1769054;79;27299;-82
2021/05/26 03:18:52;;;;;;;5.83;2.87;;;;;;;5.26;78.27;97515.18;1786708;79;25704;-83
2021/05/26 03:21:18;;;;;;;7.55;2.58;;;;;;;5.28;78.37;97534.58;1785122;78;25726;-82
2021/05/26 03:23:45;;;;;;;4.78;2.33;;;;;;;5.30;78.38;97529.89;1771711;79;25726;-82
2021/05/26 03:26:13;;;;;;;3.67;2.17;;;;;;;5.31;78.43;97524.33;1761530;79;25599;-82
2021/05/26 03:28:40;;;;;;;5.75;2.35;;;;;;;5.33;78.46;97520.98;1774858;79;27322;-83
2021/05/26 03:31:07;;;;;;;7.92;2.60;;;;;;;5.37;78.45;97524.98;1782862;78;25690;-82
2021/05/26 03:33:34;;;;;;;3.72;1.95;;;;;;;5.39;78.33;97538.20;1761198;79;25667;-83
2021/05/26 03:36:04;;;;;;;5.95;2.22;;;;;;;5.36;78.25;97532.69;1769123;79;26136;-85
2021/05/26 03:38:31;;;;;;;5.12;2.15;;;;;;;5.36;78.29;97539.37;1774836;79;25439;-84
2021/05/26 03:40:58;;;;;;;4.92;2.52;;;;;;;5.37;78.42;97538.87;1760568;79;27387;-85
2021/05/26 03:43:24;;;;;;;4.70;2.87;;;;;;;5.34;78.42;97540.05;1761545;79;25738;-84
2021/05/26 03:45:51;;;;;;;3.52;2.25;;;;;;;5.35;78.60;97540.38;1786978;78;26547;-85
2021/05/26 03:48:18;;;;;;;5.58;2.40;;;;;;;5.37;78.83;97542.89;1765536;79;25744;-86
2021/05/26 03:50:45;;;;;;;4.55;3.00;;;;;;;5.41;78.93;97542.88;1761431;79;25654;-83
2021/05/26 03:53:11;;;;;;;7.85;2.50;;;;;;;5.48;79.03;97548.34;1773987;79;27408;-82
2021/05/26 03:55:38;;;;;;;5.00;2.33;;;;;;;5.53;79.07;97545.98;1769116;79;25628;-84
2021/05/26 03:58:04;;;;;;;3.30;2.20;;;;;;;5.58;79.07;97551.63;1781831;79;26277;-83
2021/05/26 04:00:31;;;;;;;5.20;2.42;;;;;;;5.64;79.03;97548.27;1765302;79;26438;-84
2021/05/26 04:02:58;;;;;;;5.70;3.05;;;;;;;5.68;78.87;97550.89;1792150;79;25719;-83
2021/05/26 04:05:24;;;;;;;7.65;2.90;;;;;;;5.69;78.84;97551.23;1794596;79;27313;-82
2021/05/26 04:07:51;;;;;;;10.35;3.35;;;;;;;5.73;78.91;97548.03;1781505;79;26772;-84
2021/05/26 04:10:17;;;;;;;11.35;3.77;;;;;;;5.79;78.99;97551.86;1792856;78;26269;-83
2021/05/26 04:12:44;;;;;;;12.13;4.33;;;;;;;5.83;79.20;97553.66;1773914;78;25910;-85
2021/05/26 04:15:13;;;;;;;9.63;3.52;;;;;;;5.85;79.46;97548.45;1782149;79;25697;-82
2021/05/26 04:17:40;;;;;;;11.38;3.95;;;;;;;5.95;79.51;97561.13;1777511;79;27399;-85
2021/05/26 04:20:08;;;;;;;8.30;3.77;;;;;;;6.03;79.56;97562.94;1771717;79;25688;-84
2021/05/26 04:22:36;;;;;;;6.65;3.87;;;;;;;6.11;79.55;97560.19;1799524;79;25718;-83
2021/05/26 04:25:06;;;;;;;9.83;3.30;;;;;;;6.20;79.45;97556.92;1768926;79;25785;-83
2021/05/26 04:27:33;;;;;;;8.23;3.45;;;;;;;6.28;79.52;97563.58;1761201;79;25650;-82
2021/05/26 04:30:00;;;;;;;8.23;2.62;;;;;;;6.32;79.66;97557.66;1767888;79;27246;-82
2021/05/26 04:32:27;;;;;;;5.40;2.65;;;;;;;6.38;79.63;97556.95;1797322;79;25566;-84
2021/05/26 04:34:54;;;;;;;5.37;2.17;;;;;;;6.48;79.54;97551.33;1790213;79;25645;-83
2021/05/26 04:37:20;;;;;;;2.72;2.00;;;;;;;6.56;79.47;97557.94;1788436;79;26378;-84
2021/05/26 04:39:47;;;;;;;6.90;2.40;;;;;;;6.62;79.40;97562.59;1769413;79;25723;-82
2021/05/26 04:42:14;;;;;;;2.55;1.80;;;;;;;6.72;79.51;97553.77;1777788;79;27258;-83
2021/05/26 04:44:41;;;;;;;4.00;2.17;;;;;;;6.81;79.54;97548.63;1791267;79;26368;-82
2021/05/26 04:47:07;;;;;;;4.05;1.92;;;;;;;6.90;79.50;97557.41;1794611;79;25665;-82
2021/05/26 04:49:34;;;;;;;3.05;1.57;;;;;;;6.98;79.54;97552.48;1782127;79;25688;-83
2021/05/26 04:52:00;;;;;;;3.02;1.70;;;;;;;7.09;79.05;97557.39;1787405;79;25652;-83
2021/05/26 04:54:27;;;;;;;4.80;1.52;;;;;;;7.19;78.98;97557.42;1788977;78;27964;-82
2021/05/26 04:56:54;;;;;;;4.22;1.82;;;;;;;7.29;78.79;97549.08;1768104;79;26310;-84
2021/05/26 04:59:20;;;;;;;2.50;1.40;;;;;;;7.39;78.46;97553.64;1779878;78;25627;-83
2021/05/26 05:01:47;;;;;;;5.55;1.70;;;;;;;7.50;78.53;97558.53;1803545;79;25710;-81
2021/05/26 05:04:13;;;;;;;6.05;1.92;;;;;;;7.63;78.80;97557.85;1779103;79;25837;-82
2021/05/26 05:06:40;;;;;;;7.47;2.20;;;;;;;7.75;78.43;97566.25;1764860;79;27380;-82
2021/05/26 05:09:08;;;;;;;5.00;2.00;;;;;;;7.84;78.37;97557.08;1771829;79;25855;-81
2021/05/26 05:11:35;;;;;;;4.30;1.57;;;;;;;7.93;77.98;97566.67;1774382;78;25633;-81
2021/05/26 05:14:01;;;;;;;3.40;1.80;;;;;;;8.03;77.50;97565.02;1780244;79;25681;-87
2021/05/26 05:16:28;;;;;;;2.05;1.42;;;;;;;8.13;77.55;97569.05;1772856;79;25656;-83
2021/05/26 05:18:54;;;;;;;2.37;1.32;;;;;;;8.26;77.56;97566.48;1776854;79;27371;-84
2021/05/26 05:21:22;;;;;;;2.12;1.30;;;;;;;8.37;77.17;97573.73;1789965;79;25557;-82
2021/05/26 05:23:48;;;;;;;3.85;1.65;;;;;;;8.45;76.83;97570.39;1775900;78;25621;-85
2021/05/26 05:26:15;;;;;;;5.15;1.70;;;;;;;8.55;76.57;97568.23;1780159;79;26711;-82
2021/05/26 05:28:42;;;;;;;5.30;1.22;;;;;;;8.64;76.33;97566.22;1785720;78;25703;-81
2021/05/26 05:31:09;;;;;;;2.50;1.22;;;;;;;8.73;76.32;97561.00;1778018;78;27320;-82
2021/05/26 05:33:36;;;;;;;6.25;1.57;;;;;;;8.82;76.03;97558.47;1778517;79;25592;-81
2021/05/26 05:36:04;;;;;;;2.47;1.65;;;;;;;8.91;75.75;97560.01;1775306;79;25338;-81
2021/05/26 05:38:30;;;;;;;4.20;1.60;;;;;;;8.99;75.61;97559.84;1784422;79;25726;-81
2021/05/26 05:40:57;;;;;;;4.40;1.62;;;;;;;9.09;75.41;97563.52;1780004;79;25740;-80
2021/05/26 05:43:24;;;;;;;3.67;1.40;;;;;;;9.18;75.32;97563.67;1769182;79;27356;-81
2021/05/26 05:45:51;;;;;;;1.82;1.30;;;;;;;9.27;74.87;97556.28;1759981;79;26171;-78
2021/05/26 05:48:17;;;;;;;6.37;1.22;;;;;;;9.36;74.69;97554.56;1757508;79;25595;-86
2021/05/26 05:50:44;;;;;;;3.52;1.60;;;;;;;9.46;74.47;97548.80;1764474;79;26617;-81
2021/05/26 05:53:11;;;;;;;3.25;1.60;;;;;;;9.55;74.16;97546.23;1764263;79;25717;-82
2021/05/26 05:55:37;;;;;;;4.03;1.50;;;;;;;9.65;73.92;97547.23;1744126;81;27352;-83
2021/05/26 05:58:04;;;;;;;3.80;1.30;;;;;;;9.74;73.75;97548.19;1786617;79;25714;-83
2021/05/26 06:00:35;;;;;;;2.77;1.10;;;;;;;9.85;73.39;97544.58;1764419;79;25629;-80
2021/05/26 06:03:01;;;;;;;3.25;1.82;;;;;;;9.93;73.16;97541.69;1782467;79;25645;-83
2021/05/26 06:05:28;;;;;;;2.50;1.32;;;;;;;10.01;72.87;97541.52;1786503;79;25570;-81
2021/05/26 06:07:55;;;;;;;1.30;1.15;;;;;;;10.09;72.51;97541.32;1763867;79;26808;-82
2021/05/26 06:10:21;;;;;;;2.87;1.35;;;;;;;10.18;72.35;97541.46;1780757;79;25593;-82
2021/05/26 06:12:49;;;;;;;7.05;1.42;;;;;;;10.25;72.10;97531.53;1779294;79;25593;-88
2021/05/26 06:15:16;;;;;;;4.05;1.35;;;;;;;10.33;71.83;97531.31;1796457;79;25693;-84
2021/05/26 06:17:43;;;;;;;2.40;1.57;;;;;;;10.43;71.61;97526.33;1774680;79;25647;-81
2021/05/26 06:20:11;;;;;;;4.30;1.30;;;;;;;10.51;71.32;97521.23;1793996;79;27533;-81
2021/05/26 06:22:37;;;;;;;3.37;1.20;;;;;;;10.61;71.01;97520.33;1788191;79;25621;-81
2021/05/26 06:25:05;;;;;;;4.12;1.35;;;;;;;10.69;70.79;97516.56;1788131;79;25603;-81
2021/05/26 06:27:32;;;;;;;4.45;1.10;;;;;;;10.79;70.53;97518.31;1779013;79;26471;-81
2021/05/26 06:29:58;;;;;;;4.35;1.20;;;;;;;10.88;70.38;97513.00;1788979;79;25559;-84
2021/05/26 06:32:25;;;;;;;3.35;1.15;;;;;;;10.98;70.35;97517.47;1781979;79;27373;-84
2021/05/26 06:34:51;;;;;;;3.90;1.25;;;;;;;11.09;69.42;97511.94;1761132;79;25559;-82
2021/05/26 06:37:18;;;;;;;3.83;1.35;;;;;;;11.17;69.31;97513.88;1791275;78;25665;-87
2021/05/26 06:39:44;;;;;;;3.77;1.40;;;;;;;11.29;69.15;97509.16;1773067;78;25823;-86
2021/05/26 06:42:11;;;;;;;6.83;1.82;;;;;;;11.37;68.39;97503.51;1782601;79;25631;-82
2021/05/26 06:44:38;;;;;;;3.52;1.40;;;;;;;11.45;68.16;97497.88;1777430;79;27365;-85
2021/05/26 06:47:04;;;;;;;3.60;1.40;;;;;;;11.54;67.94;97502.83;1803768;79;25720;-87
2021/05/26 06:49:31;;;;;;;3.70;1.60;;;;;;;11.61;67.52;97504.12;1788092;79;25623;-83
2021/05/26 06:51:58;;;;;;;3.77;1.45;;;;;;;11.67;67.15;97504.63;1797597;79;25854;-82
2021/05/26 06:54:25;;;;;;;4.37;1.32;;;;;;;11.74;66.97;97494.59;1789525;79;25680;-85
2021/05/26 06:56:51;;;;;;;3.02;1.00;;;;;;;11.81;66.46;97500.85;1786603;79;27998;-82
2021/05/26 06:59:18;;;;;;;2.75;1.60;;;;;;;11.87;65.93;97487.80;1803687;79;25825;-84
2021/05/26 07:01:44;;;;;;;2.67;1.25;;;;;;;11.97;66.00;97494.08;1773769;79;25646;-85
2021/05/26 07:04:12;;;;;;;2.27;1.10;;;;;;;12.07;65.59;97482.80;1769658;79;25726;-85
2021/05/26 07:06:38;;;;;;;7.62;1.35;;;;;;;12.14;65.19;97479.51;1796638;79;25632;-83
2021/05/26 07:09:05;;;;;;;3.10;1.52;;;;;;;12.17;64.60;97486.67;1772439;79;27524;-83
2021/05/26 07:11:31;;;;;;;5.67;1.42;;;;;;;12.22;64.39;97489.53;1795944;78;26318;-82
2021/05/26 07:13:58;;;;;;;5.37;1.55;;;;;;;12.28;64.06;97483.78;1769230;79;25568;-89
2021/05/26 07:16:25;;;;;;;1.98;0.78;;;;;;;12.34;63.85;97485.59;1777274;79;25665;-83
2021/05/26 07:18:52;;;;;;;4.80;1.30;;;;;;;12.43;63.32;97492.94;1791138;79;25624;-84
2021/05/26 07:21:19;;;;;;;4.12;1.30;;;;;;;12.49;62.99;97482.03;1800932;78;27327;-84
2021/05/26 07:23:45;;;;;;;6.00;1.17;;;;;;;12.59;62.48;97476.11;1770842;79;25725;-83
2021/05/26 07:26:12;;;;;;;4.37;1.37;;;;;;;12.71;62.47;97472.14;1782660;79;25594;-83
2021/05/26 07:28:40;;;;;;;3.83;1.12;;;;;;;12.86;63.03;97481.58;1772174;79;26411;-86
2021/05/26 07:31:07;;;;;;;4.22;1.35;;;;;;;12.95;61.99;97474.81;1779322;79;25563;-84
2021/05/26 07:33:33;;;;;;;3.50;1.20;;;;;;;13.07;61.61;97478.96;1796585;78;27290;-85
2021/05/26 07:36:00;;;;;;;2.85;0.80;;;;;;;13.21;61.74;97471.02;1744151;81;25651;-85
2021/05/26 07:38:26;;;;;;;3.83;1.30;;;;;;;13.39;61.42;97473.43;1735723;79;25271;-84
2021/05/26 07:40:54;;;;;;;4.10;1.07;;;;;;;13.51;60.91;97477.03;1745315;79;26359;-81
2021/05/26 07:43:21;;;;;;;2.75;0.88;;;;;;;13.61;60.19;97478.14;1787637;79;25629;-83
2021/05/26 07:45:49;;;;;;;2.85;1.12;;;;;;;13.76;59.92;97475.03;1768308;79;27333;-83
2021/05/26 07:48:17;;;;;;;3.30;1.00;;;;;;;14.00;59.76;97472.70;1797070;79;25637;-83
2021/05/26 07:50:44;;;;;;;3.37;1.10;;;;;;;14.31;59.73;97470.75;1775781;79;25670;-82
2021/05/26 07:53:11;;;;;;;2.20;1.50;;;;;;;14.59;59.21;97477.74;1776688;79;26176;-84
2021/05/26 07:55:37;;;;;;;2.08;1.00;;;;;;;14.89;58.56;97480.86;1794795;79;25648;-85
2021/05/26 07:58:04;;;;;;;1.82;0.85;;;;;;;15.07;57.89;97473.42;1775907;79;28183;-85
2021/05/26 08:00:31;;;;;;;2.05;0.80;;;;;;;15.27;57.26;97472.20;1794129;78;25841;-83
2021/05/26 08:02:57;;;;;;;7.00;1.10;;;;;;;15.52;56.48;97473.27;1791832;78;25621;-86
2021/05/26 08:05:24;;;;;;;2.65;1.07;;;;;;;15.65;55.95;97477.10;1800866;78;25912;-84
2021/05/26 08:07:52;;;;;;;2.50;0.90;;;;;;;15.68;55.53;97469.29;1728455;81;25688;-86
2021/05/26 08:10:18;;;;;;;3.83;1.27;;;;;;;15.85;55.38;97467.43;1764585;79;27447;-86
2021/05/26 08:12:45;;;;;;;2.50;1.37;;;;;;;16.04;55.09;97460.44;1776993;79;25680;-85
2021/05/26 08:15:13;;;;;;;3.67;0.90;;;;;;;16.29;54.58;97464.14;1780488;78;25689;-86
2021/05/26 08:17:41;;;;;;;4.20;1.00;;;;;;;16.64;54.11;97459.84;1764569;79;25754;-83
2021/05/26 08:20:09;;;;;;;4.67;1.22;;;;;;;17.04;53.73;97463.16;1767638;79;25646;-90
2021/05/26 08:22:36;;;;;;;2.12;0.72;;;;;;;17.41;53.33;97459.84;1774940;79;27463;-86
2021/05/26 08:25:03;;;;;;;2.05;0.80;;;;;;;17.69;52.43;97465.69;1779425;79;26134;-88
2021/05/26 08:27:31;;;;;;;2.75;0.80;;;;;;;17.97;51.81;97460.83;1761561;79;25574;-84
2021/05/26 08:30:01;;;;;;;1.85;0.80;;;;;;;18.20;51.15;97459.69;1787069;79;26348;-84
2021/05/26 08:32:28;;;;;;;1.72;0.90;;;;;;;18.55;50.54;97453.72;1772779;79;25670;-85
2021/05/26 08:34:55;;;;;;;2.30;1.32;;;;;;;18.69;49.27;97437.73;1785363;79;27320;-83
2021/05/26 08:37:23;;;;;;;3.30;1.07;;;;;;;18.99;48.91;97450.23;1774467;79;25691;-85
2021/05/26 08:39:50;;;;;;;1.15;0.65;;;;;;;19.40;48.62;97432.13;1811709;78;25229;-85
2021/05/26 08:42:17;;;;;;;3.00;0.90;;;;;;;20.46;48.44;97430.23;1799783;78;26320;-85
2021/05/26 08:44:45;;;;;;;2.55;0.90;;;;;;;20.46;48.44;97430.23;1797608;79;25530;-84
2021/05/26 08:47:18;;;;;;;1.98;0.90;;;;;;;20.83;46.99;97431.31;1789419;79;28129;-91
2021/05/26 08:49:48;;;;;;;3.62;0.88;;;;;;;21.05;46.87;97424.14;1776613;79;26432;-86
2021/05/26 08:52:16;;;;;;;2.65;1.05;;;;;;;21.30;45.66;97434.81;1765141;79;25591;-89
2021/05/26 08:54:46;;;;;;;1.77;0.93;;;;;;;21.72;45.05;97432.46;1773461;79;25745;-87
2021/05/26 08:57:15;;;;;;;3.52;1.17;;;;;;;22.27;44.67;97425.01;1775700;79;25688;-88
2021/05/26 08:59:42;;;;;;;2.02;1.15;;;;;;;22.69;44.24;97426.34;1758300;79;27568;-92
2021/05/26 09:02:11;;;;;;;3.52;0.98;;;;;;;23.06;43.58;97415.56;1768948;79;25678;-94
2021/05/26 09:04:38;;;;;;;3.10;0.98;;;;;;;23.11;41.52;97418.23;1766439;79;26224;-88
2021/05/26 09:07:19;;;;;;;1.35;0.80;;;;;;;23.18;40.75;97426.17;1795992;79;26311;-91
2021/05/26 09:09:55;;;;;;;1.62;1.00;;;;;;;23.01;40.05;97428.54;1767454;79;25249;-87
2021/05/26 09:12:43;;;;;;;2.58;0.90;;;;;;;22.47;38.98;97411.64;1762929;79;27477;-89
2021/05/26 09:15:16;;;;;;;3.25;1.07;;;;;;;22.46;39.59;97415.53;1772046;79;25688;-90
2021/05/26 09:17:45;;;;;;;4.10;1.02;;;;;;;22.71;38.87;97411.16;1768189;79;25583;-96
2021/05/26 09:20:17;;;;;;;2.98;1.02;;;;;;;22.95;38.86;97404.36;1780834;79;25681;-93
2021/05/26 09:23:09;;;;;;;2.62;1.12;;;;;;;23.13;39.02;97413.27;1772669;79;25579;-91
2021/05/26 09:25:40;;;;;;;3.37;1.05;;;;;;;23.42;38.63;97402.20;1774462;79;27506;-91
2021/05/26 09:28:28;;;;;;;2.90;1.40;;;;;;;23.55;37.98;97395.16;1762346;79;26280;-86
2021/05/26 09:31:04;;;;;;;3.50;1.65;;;;;;;23.51;37.86;97388.63;1767872;79;25624;-89
2021/05/26 09:33:47;;;;;;;2.35;1.27;;;;;;;23.31;37.07;97387.71;1768661;79;25976;-88
2021/05/26 09:36:22;;;;;;;2.62;1.30;;;;;;;23.25;37.08;97390.27;1762079;79;25618;-92
2021/05/26 09:38:59;;;;;;;3.20;1.00;;;;;;;23.14;36.83;97390.12;1775838;79;28123;-85
2021/05/26 09:41:32;;;;;;;2.02;0.90;;;;;;;23.20;37.48;97386.19;1765445;79;25634;-89
2021/05/26 09:44:11;;;;;;;1.62;0.88;;;;;;;23.28;36.60;97378.68;1767223;79;25517;-83
2021/05/26 09:46:43;;;;;;;3.47;1.10;;;;;;;23.35;36.71;97377.76;1759546;80;25774;-86
2021/05/26 09:49:17;;;;;;;;;;;;;;;23.36;36.17;97373.06;1782849;79;25772;-88
2021/05/26 09:51:59;;;;;;;1.62;1.02;;;;;;;23.34;35.56;97366.47;1777104;79;27335;-90
2021/05/26 09:54:32;;;;;;;2.08;1.10;;;;;;;23.64;36.22;97367.24;1766538;79;25676;-88
2021/05/26 09:57:08;;;;;;;4.20;0.98;;;;;;;23.70;35.92;97370.17;1766954;79;25947;-92
2021/05/26 09:59:37;;;;;;;2.42;1.17;;;;;;;23.56;33.20;97370.08;1783541;79;25738;-92
2021/05/26 10:02:07;;;;;;;0.88;0.80;;;;;;;23.08;32.82;97370.63;1787714;79;25608;-87
2021/05/26 10:04:32;;;;;;;2.12;0.80;;;;;;;22.79;33.28;97362.98;1760374;79;27388;-91
2021/05/26 10:07:05;;;;;;;2.02;1.00;;;;;;;22.78;33.84;97355.28;1772834;79;25618;-91
2021/05/26 10:09:34;;;;;;;1.80;0.82;;;;;;;22.95;34.05;97346.00;1768005;79;25756;-89
2021/05/26 10:12:02;;;;;;;3.08;1.45;;;;;;;22.97;34.25;97352.59;1761443;79;25853;-88
2021/05/26 10:14:30;;;;;;;1.90;0.80;;;;;;;22.97;33.88;97340.20;1766308;79;25705;-91
2021/05/26 10:16:59;;;;;;;2.70;0.90;;;;;;;23.03;33.81;97339.05;1760528;79;27482;-89
2021/05/26 10:19:26;;;;;;;1.82;0.82;;;;;;;23.09;33.34;97324.10;1774742;79;25220;-90
2021/05/26 10:21:53;;;;;;;1.10;0.80;;;;;;;22.99;34.15;97326.98;1764455;79;25602;-85
2021/05/26 10:24:22;;;;;;;2.65;1.27;;;;;;;23.02;33.52;97334.66;1756194;79;26451;-87
2021/05/26 10:26:57;;;;;;;2.15;1.20;;;;;;;23.13;33.16;97326.54;1770189;79;25708;-90
2021/05/26 10:29:33;;;;;;;3.80;1.17;;;;;;;23.17;33.21;97324.84;1778893;79;27282;-91
2021/05/26 10:32:10;;;;;;;4.83;1.37;;;;;;;23.24;32.51;97325.30;1778609;79;25566;-90
2021/05/26 10:34:51;;;;;;;4.30;1.10;;;;;;;23.27;32.11;97323.34;1779520;79;26313;-86
2021/05/26 10:37:38;;;;;;;3.90;1.02;;;;;;;23.26;32.60;97324.45;1769544;79;26205;-87
2021/05/26 10:40:32;;;;;;;2.35;1.10;;;;;;;23.22;31.75;97315.69;1788150;79;25578;-87
2021/05/26 10:43:20;;;;;;;2.95;1.10;;;;;;;23.43;32.79;97318.98;1798536;79;27596;-89
2021/05/26 10:45:49;;;;;;;3.15;0.98;;;;;;;23.73;33.16;97311.72;1787633;79;26288;-94
2021/05/26 10:48:42;;;;;;;3.42;1.10;;;;;;;23.94;31.75;97321.31;1782250;79;25619;-92
2021/05/26 10:51:11;;;;;;;2.02;1.22;;;;;;;23.71;30.51;97312.56;1769662;79;25776;-90
2021/05/26 10:53:41;;;;;;;2.70;1.25;;;;;;;23.40;31.20;97314.09;1782533;79;25744;-90
2021/05/26 10:56:41;;;;;;;3.95;1.12;;;;;;;23.26;31.05;97309.86;1761751;79;28040;-88
2021/05/26 10:59:12;;;;;;;3.98;1.35;;;;;;;22.94;31.05;97302.28;1771209;79;25666;-88
2021/05/26 11:02:10;;;;;;;1.85;1.05;;;;;;;22.79;31.79;97305.20;1765445;79;25535;-87
2021/05/26 11:04:39;;;;;;;2.45;1.50;;;;;;;22.89;31.91;97299.58;1788728;79;25721;-88
2021/05/26 11:07:31;;;;;;;2.33;1.20;;;;;;;22.90;31.37;97301.22;1800607;79;25621;-86
2021/05/26 11:10:01;;;;;;;3.22;1.52;;;;;;;22.88;31.52;97296.55;1767073;78;27344;-88
2021/05/26 11:12:31;;;;;;;5.37;1.42;;;;;;;22.90;31.77;97287.45;1766232;79;25678;-92
2021/05/26 11:14:58;;;;;;;4.45;1.05;;;;;;;22.90;32.21;97290.20;1764155;79;25760;-91
2021/05/26 11:17:27;;;;;;;1.17;1.00;;;;;;;22.85;31.89;97291.08;1764938;79;26297;-91
2021/05/26 11:20:13;;;;;;;1.37;0.90;;;;;;;22.75;31.06;97271.08;1790253;79;25573;-91
2021/05/26 11:22:40;;;;;;;2.65;1.30;;;;;;;22.77;30.96;97270.27;1758965;79;27315;-95
2021/05/26 11:25:09;;;;;;;1.45;0.90;;;;;;;22.52;30.95;97276.28;1769845;79;25697;-92
2021/05/26 11:27:36;;;;;;;2.80;0.95;;;;;;;22.44;31.25;97276.92;1756936;79;25685;-91
2021/05/26 11:30:05;;;;;;;4.33;1.10;;;;;;;22.33;31.58;97276.77;1755649;79;25696;-92
2021/05/26 11:32:32;;;;;;;2.95;1.15;;;;;;;22.30;32.08;97274.59;1761329;79;25606;-85
2021/05/26 11:35:06;;;;;;;2.95;1.15;;;;;;;22.24;31.83;97281.23;1762931;79;27391;-87
2021/05/26 11:37:40;;;;;;;2.12;0.82;;;;;;;22.20;32.22;97273.31;1752777;79;25657;-91
2021/05/26 11:40:26;;;;;;;3.60;1.00;;;;;;;22.24;32.37;97272.98;1769795;79;25633;-84
2021/05/26 11:42:55;;;;;;;1.72;0.93;;;;;;;22.22;32.09;97269.69;1776043;79;26397;-83
2021/05/26 11:45:24;;;;;;;3.00;1.32;;;;;;;22.20;31.87;97273.31;1769862;79;25655;-85